createdAt,value
2022-12-29T00:02:06.727Z,12.40
2022-12-29T00:04:35.053Z,12.40
2022-12-29T00:07:05.488Z,12.40
2022-12-29T00:09:34.718Z,12.40
2022-12-29T00:12:05.994Z,12.40
2022-12-29T00:15:00.183Z,12.40
2022-12-29T00:17:28.503Z,12.40
2022-12-29T00:20:14.172Z,12.40
2022-12-29T00:23:00.202Z,12.40
2022-12-29T00:25:45.838Z,12.40
2022-12-29T00:28:33.159Z,12.50
2022-12-29T00:31:22.067Z,12.40
2022-12-29T00:34:07.622Z,12.40
2022-12-29T00:36:40.953Z,12.50
2022-12-29T00:39:29.454Z,12.50
2022-12-29T00:42:15.194Z,12.40
2022-12-29T00:44:45.273Z,12.50
2022-12-29T00:47:13.617Z,12.50
2022-12-29T00:49:41.490Z,12.50
2022-12-29T00:52:11.710Z,12.50
2022-12-29T00:54:41.642Z,12.40
2022-12-29T00:57:11.549Z,12.50
2022-12-29T00:59:41.159Z,12.50
2022-12-29T01:02:11.591Z,12.50
2022-12-29T01:04:40.126Z,12.50
2022-12-29T01:07:09.924Z,12.50
2022-12-29T01:09:56.698Z,12.50
2022-12-29T01:12:39.022Z,12.50
2022-12-29T01:15:08.973Z,12.50
2022-12-29T01:17:38.784Z,12.50
2022-12-29T01:20:08.453Z,12.50
2022-12-29T01:22:37.423Z,12.50
2022-12-29T01:25:06.625Z,12.50
2022-12-29T01:27:38.249Z,12.60
2022-12-29T01:30:08.305Z,12.50
2022-12-29T01:32:38.036Z,12.60
2022-12-29T01:35:07.549Z,12.60
2022-12-29T01:37:36.943Z,12.60
2022-12-29T01:40:06.545Z,12.60
2022-12-29T01:42:35.535Z,12.60
2022-12-29T01:45:05.539Z,12.60
2022-12-29T01:47:40.048Z,12.60
2022-12-29T01:50:15.280Z,12.60
2022-12-29T01:52:49.673Z,12.60
2022-12-29T01:55:19.160Z,12.60
2022-12-29T01:57:51.008Z,12.60
2022-12-29T02:00:19.748Z,12.60
2022-12-29T02:02:53.505Z,12.60
2022-12-29T02:05:27.293Z,12.60
2022-12-29T02:07:56.100Z,12.60
2022-12-29T02:10:27.890Z,12.60
2022-12-29T02:12:58.775Z,12.60
2022-12-29T02:15:35.419Z,12.60
2022-12-29T02:18:16.439Z,12.70
2022-12-29T02:21:20.253Z,12.60
2022-12-29T02:24:20.886Z,12.60
2022-12-29T02:27:16.606Z,12.60
2022-12-29T02:30:18.184Z,12.70
2022-12-29T02:32:57.263Z,12.70
2022-12-29T02:35:33.764Z,12.60
2022-12-29T02:38:13.024Z,12.70
2022-12-29T02:40:45.968Z,12.70
2022-12-29T02:43:24.655Z,12.60
2022-12-29T02:45:59.007Z,12.70
2022-12-29T02:48:33.409Z,12.70
2022-12-29T02:51:04.550Z,12.70
2022-12-29T02:53:53.438Z,12.70
2022-12-29T02:56:21.817Z,12.70
2022-12-29T02:58:50.081Z,12.70
2022-12-29T03:01:28.630Z,12.70
2022-12-29T03:04:16.571Z,12.70
2022-12-29T03:06:57.154Z,12.70
2022-12-29T03:09:38.172Z,12.70
2022-12-29T03:12:16.518Z,12.70
2022-12-29T03:15:16.023Z,12.70
2022-12-29T03:17:53.458Z,12.70
2022-12-29T03:20:28.583Z,12.70
2022-12-29T03:23:02.596Z,12.70
2022-12-29T03:25:37.090Z,12.70
2022-12-29T03:28:12.861Z,12.70
2022-12-29T03:30:47.144Z,12.70
2022-12-29T03:33:20.661Z,12.70
2022-12-29T03:35:53.014Z,12.70
2022-12-29T03:38:30.817Z,12.80
2022-12-29T03:41:03.366Z,12.80
2022-12-29T03:43:32.889Z,12.80
2022-12-29T03:46:01.306Z,12.80
2022-12-29T03:48:29.622Z,12.80
2022-12-29T03:51:00.727Z,12.90
2022-12-29T03:53:29.210Z,12.80
2022-12-29T03:55:57.628Z,12.80
2022-12-29T03:58:26.675Z,12.80
2022-12-29T04:01:03.856Z,12.80
2022-12-29T04:03:34.944Z,12.80
2022-12-29T04:06:04.867Z,12.80
2022-12-29T04:08:41.679Z,12.80
2022-12-29T04:11:10.205Z,12.80
2022-12-29T04:13:41.711Z,12.80
2022-12-29T04:16:11.545Z,12.80
2022-12-29T04:18:40.353Z,12.80
2022-12-29T04:21:10.312Z,12.80
2022-12-29T04:23:41.963Z,12.80
2022-12-29T04:26:12.301Z,12.80
2022-12-29T04:29:16.034Z,12.80
2022-12-29T04:32:04.479Z,12.80
2022-12-29T04:34:35.043Z,12.80
2022-12-29T04:37:04.752Z,12.80
2022-12-29T04:39:35.045Z,12.80
2022-12-29T04:42:04.515Z,12.90
2022-12-29T04:44:34.045Z,12.80
2022-12-29T04:47:13.193Z,12.80
2022-12-29T04:49:51.528Z,12.90
2022-12-29T04:52:41.639Z,12.90
2022-12-29T04:55:13.303Z,12.90
2022-12-29T04:57:42.693Z,12.80
2022-12-29T05:00:17.246Z,12.80
2022-12-29T05:02:48.047Z,12.90
2022-12-29T05:05:18.050Z,12.80
2022-12-29T05:07:51.427Z,12.80
2022-12-29T05:10:20.387Z,12.80
2022-12-29T05:12:50.811Z,12.80
2022-12-29T05:15:20.113Z,12.80
2022-12-29T05:17:48.323Z,12.90
2022-12-29T05:20:17.292Z,12.80
2022-12-29T05:22:46.200Z,12.80
2022-12-29T05:25:17.397Z,12.90
2022-12-29T05:28:16.085Z,12.80
2022-12-29T05:30:52.367Z,12.80
2022-12-29T05:33:22.092Z,12.80
2022-12-29T05:35:52.514Z,12.80
2022-12-29T05:38:22.681Z,12.80
2022-12-29T05:40:53.597Z,12.80
2022-12-29T05:43:52.206Z,12.80
2022-12-29T05:46:32.835Z,12.80
2022-12-29T05:49:27.958Z,12.80
2022-12-29T05:52:26.653Z,12.80
2022-12-29T05:54:55.433Z,12.80
2022-12-29T05:57:28.587Z,12.80
2022-12-29T06:00:08.246Z,12.80
2022-12-29T06:02:46.943Z,12.80
2022-12-29T06:05:21.207Z,12.80
2022-12-29T06:07:51.826Z,12.80
2022-12-29T06:10:22.120Z,12.80
2022-12-29T06:13:05.259Z,12.80
2022-12-29T06:15:37.400Z,12.80
2022-12-29T06:18:10.805Z,12.80
2022-12-29T06:20:41.205Z,12.80
2022-12-29T06:23:10.811Z,12.80
2022-12-29T06:25:39.717Z,12.80
2022-12-29T06:28:11.583Z,12.80
2022-12-29T06:30:41.036Z,12.80
2022-12-29T06:33:10.592Z,12.80
2022-12-29T06:35:38.916Z,12.80
2022-12-29T06:38:07.856Z,12.80
2022-12-29T06:40:36.944Z,12.80
2022-12-29T06:43:06.409Z,12.80
2022-12-29T06:45:57.827Z,12.80
2022-12-29T06:48:26.953Z,12.80
2022-12-29T06:50:58.942Z,12.80
2022-12-29T06:53:29.260Z,12.80
2022-12-29T06:55:58.090Z,12.80
2022-12-29T06:58:26.577Z,12.80
2022-12-29T07:00:56.817Z,12.80
2022-12-29T07:03:26.414Z,12.80
2022-12-29T07:05:55.440Z,12.80
2022-12-29T07:08:25.300Z,12.80
2022-12-29T07:10:54.639Z,12.80
2022-12-29T07:13:23.563Z,12.80
2022-12-29T07:15:52.165Z,12.80
2022-12-29T07:18:22.348Z,12.80
2022-12-29T07:20:50.908Z,12.80
2022-12-29T07:23:19.656Z,12.80
2022-12-29T07:25:48.704Z,12.80
2022-12-29T07:28:17.400Z,12.80
2022-12-29T07:30:48.422Z,12.80
2022-12-29T07:33:17.151Z,12.80
2022-12-29T07:35:47.443Z,12.80
2022-12-29T07:38:17.343Z,12.80
2022-12-29T07:40:46.416Z,12.80
2022-12-29T07:43:15.802Z,12.80
2022-12-29T07:45:55.316Z,12.80
2022-12-29T07:48:26.719Z,12.80
2022-12-29T07:50:59.027Z,12.80
2022-12-29T07:53:27.456Z,12.80
2022-12-29T07:55:56.127Z,12.80
2022-12-29T07:58:24.917Z,12.80
2022-12-29T08:00:56.217Z,12.80
2022-12-29T08:03:24.792Z,12.80
2022-12-29T08:05:53.873Z,12.80
2022-12-29T08:08:25.161Z,12.80
2022-12-29T08:10:53.767Z,12.80
2022-12-29T08:13:22.712Z,12.80
2022-12-29T08:15:51.577Z,12.80
2022-12-29T08:18:20.105Z,12.70
2022-12-29T08:20:52.546Z,12.80
2022-12-29T08:23:26.384Z,12.80
2022-12-29T08:26:00.100Z,12.80
2022-12-29T08:28:29.289Z,12.70
2022-12-29T08:31:01.955Z,12.80
2022-12-29T08:33:32.330Z,12.80
2022-12-29T08:36:05.627Z,12.80
2022-12-29T08:38:35.754Z,13.00
2022-12-29T08:41:04.867Z,12.80
2022-12-29T08:43:33.612Z,12.80
2022-12-29T08:46:02.892Z,12.80
2022-12-29T08:48:31.662Z,12.80
2022-12-29T08:51:05.090Z,12.80
2022-12-29T08:53:35.209Z,12.70
2022-12-29T08:56:05.765Z,12.70
2022-12-29T08:58:44.779Z,12.70
2022-12-29T09:01:19.829Z,12.70
2022-12-29T09:06:40.982Z,12.70
2022-12-29T09:09:14.024Z,12.70
2022-12-29T09:11:43.325Z,12.30
2022-12-29T09:14:12.717Z,12.70
2022-12-29T09:17:00.488Z,12.70
2022-12-29T09:19:29.333Z,12.70
2022-12-29T09:21:57.908Z,12.70
2022-12-29T09:24:27.737Z,12.70
2022-12-29T09:26:58.354Z,12.70
2022-12-29T09:29:27.242Z,12.70
2022-12-29T09:31:56.239Z,12.70
2022-12-29T09:34:25.450Z,12.70
2022-12-29T09:36:54.207Z,12.70
2022-12-29T09:39:23.474Z,12.70
2022-12-29T09:42:04.474Z,12.70
2022-12-29T09:44:53.025Z,12.70
2022-12-29T09:47:25.837Z,12.70
2022-12-29T09:49:59.225Z,12.70
2022-12-29T09:52:33.095Z,12.70
2022-12-29T09:55:10.657Z,12.70
2022-12-29T09:57:48.224Z,12.70
2022-12-29T10:00:21.899Z,12.70
2022-12-29T10:02:54.342Z,12.70
2022-12-29T10:05:33.244Z,12.70
2022-12-29T10:08:24.702Z,12.70
2022-12-29T10:10:57.947Z,12.70
2022-12-29T10:13:54.509Z,12.70
2022-12-29T10:16:34.746Z,12.70
2022-12-29T10:19:32.772Z,12.70
2022-12-29T10:22:14.997Z,12.70
2022-12-29T10:24:46.590Z,12.70
2022-12-29T10:27:17.959Z,12.70
2022-12-29T10:29:52.452Z,12.60
2022-12-29T10:32:29.763Z,12.70
2022-12-29T10:35:04.115Z,12.70
2022-12-29T10:37:41.638Z,12.70
2022-12-29T10:40:26.083Z,12.70
2022-12-29T10:42:57.494Z,12.70
2022-12-29T10:45:33.915Z,12.70
2022-12-29T10:48:05.709Z,12.70
2022-12-29T10:50:35.334Z,12.70
2022-12-29T10:53:09.000Z,12.70
2022-12-29T10:55:40.583Z,12.70
2022-12-29T10:58:12.403Z,12.70
2022-12-29T11:00:45.282Z,12.70
2022-12-29T11:03:48.553Z,12.70
2022-12-29T11:06:24.340Z,12.70
2022-12-29T11:08:59.410Z,12.70
2022-12-29T11:11:35.059Z,12.70
2022-12-29T11:14:13.904Z,12.70
2022-12-29T11:16:46.619Z,12.70
2022-12-29T11:19:26.197Z,12.70
2022-12-29T11:21:55.181Z,12.80
2022-12-29T11:24:26.544Z,12.70
2022-12-29T11:26:58.924Z,12.70
2022-12-29T11:29:29.895Z,12.80
2022-12-29T11:32:01.518Z,12.80
2022-12-29T11:34:35.658Z,12.80
2022-12-29T11:37:08.132Z,12.80
2022-12-29T11:39:43.222Z,12.80
2022-12-29T11:42:18.792Z,12.80
2022-12-29T11:44:49.576Z,12.80
2022-12-29T11:47:30.163Z,12.80
2022-12-29T11:50:01.726Z,12.80
2022-12-29T11:52:36.749Z,12.80
2022-12-29T11:55:09.874Z,12.80
2022-12-29T11:57:38.719Z,12.80
2022-12-29T12:00:21.119Z,12.90
2022-12-29T12:03:00.490Z,12.80
2022-12-29T12:05:38.027Z,12.80
2022-12-29T12:08:20.450Z,12.80
2022-12-29T12:10:55.014Z,12.80
2022-12-29T12:13:30.355Z,12.80
2022-12-29T12:16:05.446Z,12.80
2022-12-29T12:18:43.139Z,12.80
2022-12-29T12:21:17.952Z,12.80
2022-12-29T12:24:16.471Z,12.80
2022-12-29T12:26:57.601Z,12.80
2022-12-29T12:29:30.958Z,12.80
2022-12-29T12:32:03.866Z,12.80
2022-12-29T12:34:38.261Z,12.80
2022-12-29T12:37:34.096Z,12.80
2022-12-29T12:40:22.793Z,12.80
2022-12-29T12:43:10.065Z,12.80
2022-12-29T12:46:06.158Z,12.80
2022-12-29T12:48:51.258Z,12.80
2022-12-29T12:51:39.723Z,12.80
2022-12-29T12:54:27.659Z,12.80
2022-12-29T12:57:07.292Z,12.80
2022-12-29T12:59:48.428Z,12.80
2022-12-29T13:02:30.762Z,12.80
2022-12-29T13:05:26.834Z,12.80
2022-12-29T13:08:11.933Z,12.80
2022-12-29T13:10:49.865Z,12.90
2022-12-29T13:13:49.997Z,12.80
2022-12-29T13:16:27.280Z,12.80
2022-12-29T13:19:04.671Z,12.80
2022-12-29T13:21:42.920Z,12.90
2022-12-29T13:24:21.264Z,12.90
2022-12-29T13:26:54.797Z,12.80
2022-12-29T13:29:31.775Z,12.90
2022-12-29T13:32:15.935Z,12.90
2022-12-29T13:34:59.151Z,12.90
2022-12-29T13:37:33.104Z,12.90
2022-12-29T13:40:12.446Z,12.90
2022-12-29T13:42:42.960Z,12.90
2022-12-29T13:45:17.175Z,12.90
2022-12-29T13:47:53.375Z,12.90
2022-12-29T13:50:25.049Z,12.90
2022-12-29T13:53:03.092Z,12.90
2022-12-29T13:55:39.398Z,12.90
2022-12-29T13:58:15.309Z,12.90
2022-12-29T14:00:52.541Z,12.90
2022-12-29T14:03:50.573Z,12.90
2022-12-29T14:06:25.655Z,12.90
2022-12-29T14:08:57.637Z,12.90
2022-12-29T14:11:34.483Z,12.90
2022-12-29T14:14:15.168Z,12.90
2022-12-29T14:16:44.781Z,12.90
2022-12-29T14:19:17.788Z,12.90
2022-12-29T14:21:54.373Z,12.90
2022-12-29T14:24:43.661Z,12.90
2022-12-29T14:28:03.932Z,12.90
2022-12-29T14:30:57.044Z,12.80
2022-12-29T14:33:27.754Z,12.90
2022-12-29T14:35:57.458Z,12.90
2022-12-29T14:38:29.041Z,12.80
2022-12-29T14:41:29.570Z,12.90
2022-12-29T14:44:01.878Z,12.80
2022-12-29T14:47:01.056Z,12.80
2022-12-29T14:49:33.233Z,12.80
2022-12-29T14:52:15.205Z,12.80
2022-12-29T14:54:51.211Z,12.80
2022-12-29T14:57:28.090Z,12.80
2022-12-29T15:00:00.318Z,12.80
2022-12-29T15:02:36.783Z,12.80
2022-12-29T15:05:07.266Z,12.90
2022-12-29T15:07:36.713Z,12.80
2022-12-29T15:10:14.513Z,12.80
2022-12-29T15:12:47.803Z,12.80
2022-12-29T15:15:23.375Z,12.80
2022-12-29T15:17:53.641Z,12.80
2022-12-29T15:20:27.864Z,12.80
2022-12-29T15:22:59.941Z,12.80
2022-12-29T15:25:28.810Z,12.80
2022-12-29T15:28:02.720Z,12.80
2022-12-29T15:30:31.627Z,12.80
2022-12-29T15:33:03.796Z,12.80
2022-12-29T15:35:36.477Z,12.80
2022-12-29T15:38:17.815Z,12.70
2022-12-29T15:40:47.623Z,12.70
2022-12-29T15:43:46.544Z,12.70
2022-12-29T15:46:16.461Z,12.70
2022-12-29T15:48:47.168Z,12.70
2022-12-29T15:51:23.095Z,12.70
2022-12-29T15:53:54.099Z,12.70
2022-12-29T15:56:24.136Z,12.70
2022-12-29T15:58:54.062Z,12.70
2022-12-29T16:01:29.010Z,12.70
2022-12-29T16:04:00.542Z,12.70
2022-12-29T16:06:32.366Z,12.70
2022-12-29T16:09:04.141Z,12.70
2022-12-29T16:11:36.469Z,12.70
2022-12-29T16:14:09.822Z,12.70
2022-12-29T16:16:41.079Z,12.70
2022-12-29T16:19:16.032Z,12.70
2022-12-29T16:21:45.619Z,12.70
2022-12-29T16:24:17.764Z,12.70
2022-12-29T16:26:50.967Z,12.70
2022-12-29T16:29:21.641Z,12.70
2022-12-29T16:32:01.087Z,12.70
2022-12-29T16:34:34.247Z,12.70
2022-12-29T16:37:03.999Z,12.70
2022-12-29T16:39:35.609Z,12.60
2022-12-29T16:42:51.377Z,12.60
2022-12-29T16:46:09.232Z,12.60
2022-12-29T16:48:44.917Z,12.60
2022-12-29T16:51:16.848Z,12.60
2022-12-29T16:53:53.343Z,12.60
2022-12-29T16:56:24.780Z,12.60
2022-12-29T16:58:59.529Z,12.60
2022-12-29T17:01:28.094Z,12.60
2022-12-29T17:04:01.545Z,12.60
2022-12-29T17:06:30.293Z,12.60
2022-12-29T17:08:59.374Z,12.60
2022-12-29T17:11:53.950Z,12.50
2022-12-29T17:14:46.854Z,12.50
2022-12-29T17:17:19.919Z,12.60
2022-12-29T17:19:52.538Z,12.40
2022-12-29T17:22:26.478Z,12.20
2022-12-29T17:24:56.961Z,12.20
2022-12-29T17:27:29.729Z,12.10
2022-12-29T17:30:01.654Z,12.00
2022-12-29T17:32:30.765Z,12.00
2022-12-29T17:34:59.144Z,11.80
2022-12-29T17:37:32.240Z,11.90
2022-12-29T17:40:00.563Z,11.80
2022-12-29T17:42:28.884Z,11.80
2022-12-29T17:44:58.969Z,11.80
2022-12-29T17:47:27.615Z,11.80
2022-12-29T17:49:55.888Z,11.80
2022-12-29T17:52:24.799Z,11.80
2022-12-29T17:54:55.983Z,11.80
2022-12-29T17:57:24.690Z,11.80
2022-12-29T17:59:53.620Z,11.80
2022-12-29T18:02:29.128Z,11.80
2022-12-29T18:04:58.615Z,11.80
2022-12-29T18:07:35.430Z,11.80
2022-12-29T18:10:04.943Z,11.80
2022-12-29T18:12:40.289Z,11.80
2022-12-29T18:15:17.675Z,11.80
2022-12-29T18:17:48.532Z,11.80
2022-12-29T18:20:17.976Z,11.80
2022-12-29T18:22:46.631Z,11.80
2022-12-29T18:25:26.098Z,11.80
2022-12-29T18:27:54.626Z,11.80
2022-12-29T18:30:23.072Z,11.80
2022-12-29T18:32:54.669Z,11.80
2022-12-29T18:35:29.562Z,11.80
2022-12-29T18:37:57.902Z,11.80
2022-12-29T18:40:26.230Z,11.80
2022-12-29T18:42:54.648Z,12.00
2022-12-29T18:45:24.867Z,11.80
2022-12-29T18:47:54.560Z,11.80
2022-12-29T18:50:23.492Z,11.80
2022-12-29T18:52:52.441Z,11.80
2022-12-29T18:55:22.926Z,11.80
2022-12-29T18:57:52.025Z,11.80
2022-12-29T19:00:22.739Z,11.80
2022-12-29T19:02:52.780Z,11.80
2022-12-29T19:05:25.541Z,11.80
2022-12-29T19:07:54.375Z,11.80
2022-12-29T19:10:24.268Z,11.80
2022-12-29T19:12:53.888Z,11.80
2022-12-29T19:15:24.515Z,11.80
2022-12-29T19:18:24.088Z,11.70
2022-12-29T19:20:44.789Z,11.70
2022-12-29T19:23:15.258Z,11.70
2022-12-29T19:25:44.766Z,11.70
2022-12-29T19:28:18.974Z,11.70
2022-12-29T19:30:51.884Z,11.70
2022-12-29T19:33:22.260Z,11.70
2022-12-29T19:35:52.972Z,11.70
2022-12-29T19:38:21.485Z,11.70
2022-12-29T19:40:51.685Z,11.70
2022-12-29T19:43:20.760Z,11.70
2022-12-29T19:45:49.114Z,11.70
2022-12-29T19:48:20.781Z,11.60
2022-12-29T19:50:50.942Z,11.70
2022-12-29T19:53:19.853Z,11.70
2022-12-29T19:55:49.115Z,11.70
2022-12-29T19:58:17.642Z,11.70
2022-12-29T20:00:46.059Z,11.70
2022-12-29T20:03:14.654Z,11.70
2022-12-29T20:05:42.939Z,11.70
2022-12-29T20:08:14.188Z,11.70
2022-12-29T20:10:42.676Z,11.70
2022-12-29T20:13:10.998Z,11.70
2022-12-29T20:15:39.238Z,11.70
2022-12-29T20:18:14.263Z,11.60
2022-12-29T20:20:43.254Z,11.60
2022-12-29T20:23:13.011Z,11.70
2022-12-29T20:25:45.254Z,11.70
2022-12-29T20:28:14.955Z,11.70
2022-12-29T20:30:43.537Z,11.70
2022-12-29T20:33:12.248Z,11.60
2022-12-29T20:35:40.546Z,11.60
2022-12-29T20:38:09.073Z,11.60
2022-12-29T20:40:45.911Z,11.60
2022-12-29T20:43:17.320Z,11.60
2022-12-29T20:45:46.423Z,11.60
2022-12-29T20:48:15.260Z,11.60
2022-12-29T20:50:44.367Z,11.60
2022-12-29T20:53:13.223Z,11.50
2022-12-29T20:55:43.009Z,11.50
2022-12-29T20:58:27.228Z,11.50
2022-12-29T21:00:57.212Z,11.50
2022-12-29T21:03:28.102Z,11.50
2022-12-29T21:05:57.482Z,11.50
2022-12-29T21:08:27.110Z,11.50
2022-12-29T21:11:00.543Z,11.50
2022-12-29T21:13:29.946Z,11.50
2022-12-29T21:16:00.302Z,11.50
2022-12-29T21:18:30.083Z,11.50
2022-12-29T21:21:01.019Z,11.50
2022-12-29T21:23:32.947Z,11.50
2022-12-29T21:26:03.100Z,11.40
2022-12-29T21:28:31.467Z,11.50
2022-12-29T21:31:09.605Z,11.40
2022-12-29T21:33:38.570Z,11.40
2022-12-29T21:36:08.361Z,11.40
2022-12-29T21:38:36.913Z,11.40
2022-12-29T21:41:11.803Z,11.40
2022-12-29T21:43:40.278Z,11.40
2022-12-29T21:46:08.032Z,11.40
2022-12-29T21:48:36.657Z,11.40
2022-12-29T21:51:30.704Z,11.40
2022-12-29T21:54:22.483Z,11.40
2022-12-29T21:56:52.982Z,11.40
2022-12-29T21:59:38.796Z,11.40
2022-12-29T22:02:36.237Z,11.40
2022-12-29T22:05:24.081Z,11.30
2022-12-29T22:08:10.023Z,11.40
2022-12-29T22:11:00.360Z,11.30
2022-12-29T22:13:32.602Z,11.40
2022-12-29T22:16:01.057Z,11.30
2022-12-29T22:18:29.267Z,11.30
2022-12-29T22:20:58.096Z,11.30
2022-12-29T22:23:26.623Z,11.30
2022-12-29T22:25:54.809Z,11.30
2022-12-29T22:28:23.252Z,11.30
2022-12-29T22:30:53.043Z,11.30
2022-12-29T22:33:21.561Z,11.30
2022-12-29T22:35:50.008Z,11.30
2022-12-29T22:38:18.428Z,11.30
2022-12-29T22:40:46.903Z,11.30
2022-12-29T22:43:15.473Z,11.30
2022-12-29T22:45:43.781Z,11.30
2022-12-29T22:48:13.500Z,11.30
2022-12-29T22:50:41.849Z,11.30
2022-12-29T22:53:10.260Z,11.30
2022-12-29T22:55:38.641Z,11.20
2022-12-29T22:58:06.973Z,11.20
2022-12-29T23:00:35.726Z,11.20
2022-12-29T23:03:05.453Z,11.20
2022-12-29T23:05:35.599Z,11.20
2022-12-29T23:08:04.027Z,11.20
2022-12-29T23:10:33.231Z,11.10
2022-12-29T23:13:01.548Z,11.20
2022-12-29T23:15:30.023Z,11.20
2022-12-29T23:17:58.382Z,11.20
2022-12-29T23:20:26.649Z,11.20
2022-12-29T23:22:56.571Z,11.20
2022-12-29T23:25:25.123Z,11.20
2022-12-29T23:27:53.374Z,11.20
2022-12-29T23:30:21.922Z,11.20
2022-12-29T23:32:50.291Z,11.20
2022-12-29T23:35:18.998Z,11.20
2022-12-29T23:37:47.310Z,11.20
2022-12-29T23:40:17.680Z,11.20
2022-12-29T23:42:46.086Z,11.20
2022-12-29T23:45:15.110Z,11.20
2022-12-29T23:47:43.664Z,11.20
2022-12-29T23:50:12.276Z,11.60
2022-12-29T23:52:40.639Z,11.20
2022-12-29T23:55:11.060Z,11.20
2022-12-29T23:57:41.323Z,11.20
